Terminal Aerodrome Forecast
Issued by NWS Lubbock, TX

Home | Current Version | Previous Version | Text Only | Print | Product List | Glossary On
Versions: 1 2 3 4 5 6 7 8 9 10 11 12
000
FTUS44 KLUB 171100
TAFLBB
TAF
KLBB 171125Z 1712/1812 11012KT P6SM BKN200 OVC260
     FM171700 03013KT P6SM FEW035 FEW200
     FM180300 08006KT P6SM BKN015=

USA.gov is the U.S. government's official web portal to all federal, state and local government web resources and services.